sensor_id;sensor_type;location;lat;lon;timestamp;P1;durP1;ratioP1;P2;durP2;ratioP2
65636;SDS011;52327;42.622;23.316;2023-02-28T00:00:21;4.43;;;2.28;;
65636;SDS011;52327;42.622;23.316;2023-02-28T00:02:47;3.25;;;1.92;;
65636;SDS011;52327;42.622;23.316;2023-02-28T00:05:14;3.08;;;2.15;;
65636;SDS011;52327;42.622;23.316;2023-02-28T00:07:41;3.30;;;1.52;;
65636;SDS011;52327;42.622;23.316;2023-02-28T00:10:08;1.20;;;1.02;;
65636;SDS011;52327;42.622;23.316;2023-02-28T00:12:36;6.55;;;1.67;;
65636;SDS011;52327;42.622;23.316;2023-02-28T00:15:02;2.22;;;2.03;;
65636;SDS011;52327;42.622;23.316;2023-02-28T00:17:30;5.13;;;1.80;;
65636;SDS011;52327;42.622;23.316;2023-02-28T00:19:56;3.53;;;1.63;;
65636;SDS011;52327;42.622;23.316;2023-02-28T00:22:21;4.45;;;2.33;;
65636;SDS011;52327;42.622;23.316;2023-02-28T00:24:47;2.15;;;1.73;;
65636;SDS011;52327;42.622;23.316;2023-02-28T00:27:13;4.18;;;2.53;;
65636;SDS011;52327;42.622;23.316;2023-02-28T00:29:39;3.85;;;2.15;;
65636;SDS011;52327;42.622;23.316;2023-02-28T00:32:04;3.25;;;1.73;;
65636;SDS011;52327;42.622;23.316;2023-02-28T00:34:31;2.35;;;1.60;;
65636;SDS011;52327;42.622;23.316;2023-02-28T00:37:02;1.30;;;1.20;;
65636;SDS011;52327;42.622;23.316;2023-02-28T00:39:33;4.13;;;1.85;;
65636;SDS011;52327;42.622;23.316;2023-02-28T00:41:59;4.15;;;2.33;;
65636;SDS011;52327;42.622;23.316;2023-02-28T00:44:25;3.33;;;2.63;;
65636;SDS011;52327;42.622;23.316;2023-02-28T00:46:51;9.95;;;2.70;;
65636;SDS011;52327;42.622;23.316;2023-02-28T00:49:18;2.90;;;1.27;;
65636;SDS011;52327;42.622;23.316;2023-02-28T00:51:45;3.88;;;2.05;;
65636;SDS011;52327;42.622;23.316;2023-02-28T00:54:10;3.65;;;1.95;;
65636;SDS011;52327;42.622;23.316;2023-02-28T00:56:36;3.78;;;1.73;;
65636;SDS011;52327;42.622;23.316;2023-02-28T00:59:01;2.60;;;1.48;;
65636;SDS011;52327;42.622;23.316;2023-02-28T01:01:27;5.43;;;1.38;;
65636;SDS011;52327;42.622;23.316;2023-02-28T01:03:52;1.10;;;1.00;;
65636;SDS011;52327;42.622;23.316;2023-02-28T01:06:18;2.25;;;1.30;;
65636;SDS011;52327;42.622;23.316;2023-02-28T01:08:43;3.92;;;1.73;;
65636;SDS011;52327;42.622;23.316;2023-02-28T01:11:12;1.55;;;1.15;;
65636;SDS011;52327;42.622;23.316;2023-02-28T01:13:40;2.15;;;1.55;;
65636;SDS011;52327;42.622;23.316;2023-02-28T01:16:08;4.85;;;1.98;;
65636;SDS011;52327;42.622;23.316;2023-02-28T01:18:34;2.97;;;2.25;;
65636;SDS011;52327;42.622;23.316;2023-02-28T01:21:04;3.30;;;1.60;;
65636;SDS011;52327;42.622;23.316;2023-02-28T01:23:30;3.78;;;2.53;;
65636;SDS011;52327;42.622;23.316;2023-02-28T01:25:56;5.93;;;2.58;;
65636;SDS011;52327;42.622;23.316;2023-02-28T01:28:21;3.95;;;2.20;;
65636;SDS011;52327;42.622;23.316;2023-02-28T01:30:47;4.72;;;2.50;;
65636;SDS011;52327;42.622;23.316;2023-02-28T01:33:13;3.90;;;2.53;;
65636;SDS011;52327;42.622;23.316;2023-02-28T01:35:39;4.85;;;2.40;;
65636;SDS011;52327;42.622;23.316;2023-02-28T01:38:04;5.57;;;2.67;;
65636;SDS011;52327;42.622;23.316;2023-02-28T01:40:30;6.45;;;3.33;;
65636;SDS011;52327;42.622;23.316;2023-02-28T01:42:55;7.10;;;4.32;;
65636;SDS011;52327;42.622;23.316;2023-02-28T01:47:50;4.80;;;3.60;;
65636;SDS011;52327;42.622;23.316;2023-02-28T01:50:24;5.05;;;2.83;;
65636;SDS011;52327;42.622;23.316;2023-02-28T01:52:53;13.70;;;3.88;;
65636;SDS011;52327;42.622;23.316;2023-02-28T01:55:22;5.10;;;2.95;;
65636;SDS011;52327;42.622;23.316;2023-02-28T01:57:54;4.57;;;2.47;;
65636;SDS011;52327;42.622;23.316;2023-02-28T02:00:22;6.40;;;3.33;;
65636;SDS011;52327;42.622;23.316;2023-02-28T02:02:53;5.97;;;3.15;;
65636;SDS011;52327;42.622;23.316;2023-02-28T02:05:30;8.20;;;2.53;;
65636;SDS011;52327;42.622;23.316;2023-02-28T02:07:57;5.60;;;2.83;;
65636;SDS011;52327;42.622;23.316;2023-02-28T02:10:29;11.20;;;2.90;;
65636;SDS011;52327;42.622;23.316;2023-02-28T02:13:18;18.30;;;3.17;;
65636;SDS011;52327;42.622;23.316;2023-02-28T02:29:10;3.42;;;2.30;;
65636;SDS011;52327;42.622;23.316;2023-02-28T02:37:21;5.35;;;2.95;;
65636;SDS011;52327;42.622;23.316;2023-02-28T02:45:04;2.65;;;2.40;;
65636;SDS011;52327;42.622;23.316;2023-02-28T02:47:44;3.70;;;2.15;;
65636;SDS011;52327;42.622;23.316;2023-02-28T02:50:12;4.45;;;2.22;;
65636;SDS011;52327;42.622;23.316;2023-02-28T02:52:45;5.47;;;2.47;;
65636;SDS011;52327;42.622;23.316;2023-02-28T02:55:16;4.13;;;2.30;;
65636;SDS011;52327;42.622;23.316;2023-02-28T02:57:46;4.00;;;2.03;;
65636;SDS011;52327;42.622;23.316;2023-02-28T03:00:15;3.22;;;2.03;;
65636;SDS011;52327;42.622;23.316;2023-02-28T03:02:44;4.97;;;1.90;;
65636;SDS011;52327;42.622;23.316;2023-02-28T03:05:56;1.30;;;1.10;;
65636;SDS011;52327;42.622;23.316;2023-02-28T03:08:04;3.10;;;1.42;;
65636;SDS011;52327;42.622;23.316;2023-02-28T03:13:25;1.30;;;1.02;;
65636;SDS011;52327;42.622;23.316;2023-02-28T03:27:05;4.30;;;2.70;;
65636;SDS011;52327;42.622;23.316;2023-02-28T03:29:38;4.43;;;2.45;;
65636;SDS011;52327;42.622;23.316;2023-02-28T03:32:14;3.05;;;2.75;;
65636;SDS011;52327;42.622;23.316;2023-02-28T03:34:48;2.88;;;2.33;;
65636;SDS011;52327;42.622;23.316;2023-02-28T03:37:22;7.25;;;2.80;;
65636;SDS011;52327;42.622;23.316;2023-02-28T03:39:50;4.53;;;2.75;;
65636;SDS011;52327;42.622;23.316;2023-02-28T03:42:22;6.72;;;3.28;;
65636;SDS011;52327;42.622;23.316;2023-02-28T03:44:53;4.13;;;2.85;;
65636;SDS011;52327;42.622;23.316;2023-02-28T03:47:33;8.73;;;2.58;;
65636;SDS011;52327;42.622;23.316;2023-02-28T03:50:08;3.67;;;2.60;;
65636;SDS011;52327;42.622;23.316;2023-02-28T03:52:42;6.03;;;2.45;;
65636;SDS011;52327;42.622;23.316;2023-02-28T03:55:15;4.50;;;2.42;;
65636;SDS011;52327;42.622;23.316;2023-02-28T03:57:52;6.60;;;2.90;;
65636;SDS011;52327;42.622;23.316;2023-02-28T04:00:25;6.53;;;3.47;;
65636;SDS011;52327;42.622;23.316;2023-02-28T04:02:55;2.47;;;1.65;;
65636;SDS011;52327;42.622;23.316;2023-02-28T04:05:21;5.47;;;2.75;;
65636;SDS011;52327;42.622;23.316;2023-02-28T04:07:47;3.35;;;2.35;;
65636;SDS011;52327;42.622;23.316;2023-02-28T04:10:14;2.13;;;1.45;;
65636;SDS011;52327;42.622;23.316;2023-02-28T04:12:40;9.25;;;3.80;;
65636;SDS011;52327;42.622;23.316;2023-02-28T04:15:06;6.13;;;2.63;;
65636;SDS011;52327;42.622;23.316;2023-02-28T04:17:38;4.40;;;2.13;;
65636;SDS011;52327;42.622;23.316;2023-02-28T04:20:03;6.18;;;2.30;;
65636;SDS011;52327;42.622;23.316;2023-02-28T04:22:34;5.53;;;3.08;;
65636;SDS011;52327;42.622;23.316;2023-02-28T04:24:59;7.05;;;4.00;;
65636;SDS011;52327;42.622;23.316;2023-02-28T04:27:24;5.45;;;3.50;;
65636;SDS011;52327;42.622;23.316;2023-02-28T04:29:50;6.25;;;2.92;;
65636;SDS011;52327;42.622;23.316;2023-02-28T04:32:15;4.55;;;2.63;;
65636;SDS011;52327;42.622;23.316;2023-02-28T04:34:41;3.33;;;2.88;;
65636;SDS011;52327;42.622;23.316;2023-02-28T04:37:06;4.38;;;2.92;;
65636;SDS011;52327;42.622;23.316;2023-02-28T04:39:34;4.70;;;2.63;;
65636;SDS011;52327;42.622;23.316;2023-02-28T04:42:01;3.13;;;2.05;;
65636;SDS011;52327;42.622;23.316;2023-02-28T04:44:26;4.90;;;2.78;;
65636;SDS011;52327;42.622;23.316;2023-02-28T04:46:52;3.97;;;2.30;;
65636;SDS011;52327;42.622;23.316;2023-02-28T04:49:17;4.47;;;2.08;;
65636;SDS011;52327;42.622;23.316;2023-02-28T04:51:42;7.28;;;4.47;;
65636;SDS011;52327;42.622;23.316;2023-02-28T04:54:08;7.55;;;3.78;;
65636;SDS011;52327;42.622;23.316;2023-02-28T04:56:33;6.75;;;3.83;;
65636;SDS011;52327;42.622;23.316;2023-02-28T04:58:59;9.55;;;3.58;;
65636;SDS011;52327;42.622;23.316;2023-02-28T05:01:25;3.63;;;2.38;;
65636;SDS011;52327;42.622;23.316;2023-02-28T05:03:53;6.53;;;2.63;;
65636;SDS011;52327;42.622;23.316;2023-02-28T05:06:20;5.30;;;2.70;;
65636;SDS011;52327;42.622;23.316;2023-02-28T05:08:46;3.97;;;2.40;;
65636;SDS011;52327;42.622;23.316;2023-02-28T05:11:13;4.50;;;2.83;;
65636;SDS011;52327;42.622;23.316;2023-02-28T05:13:43;4.45;;;3.85;;
65636;SDS011;52327;42.622;23.316;2023-02-28T05:16:11;5.05;;;2.20;;
65636;SDS011;52327;42.622;23.316;2023-02-28T05:18:36;7.10;;;4.70;;
65636;SDS011;52327;42.622;23.316;2023-02-28T05:21:02;5.95;;;2.55;;
65636;SDS011;52327;42.622;23.316;2023-02-28T05:23:28;7.63;;;4.05;;
65636;SDS011;52327;42.622;23.316;2023-02-28T05:25:53;6.20;;;3.83;;
65636;SDS011;52327;42.622;23.316;2023-02-28T05:28:20;4.72;;;3.25;;
65636;SDS011;52327;42.622;23.316;2023-02-28T05:30:45;6.30;;;3.33;;
65636;SDS011;52327;42.622;23.316;2023-02-28T05:33:12;9.23;;;3.63;;
65636;SDS011;52327;42.622;23.316;2023-02-28T05:35:41;8.73;;;3.08;;
65636;SDS011;52327;42.622;23.316;2023-02-28T05:38:07;7.20;;;3.40;;
65636;SDS011;52327;42.622;23.316;2023-02-28T05:40:33;6.32;;;3.53;;
65636;SDS011;52327;42.622;23.316;2023-02-28T05:42:59;4.45;;;2.25;;
65636;SDS011;52327;42.622;23.316;2023-02-28T05:45:24;4.70;;;2.50;;
65636;SDS011;52327;42.622;23.316;2023-02-28T05:47:53;4.20;;;2.35;;
65636;SDS011;52327;42.622;23.316;2023-02-28T05:50:19;3.67;;;2.63;;
65636;SDS011;52327;42.622;23.316;2023-02-28T05:52:44;5.95;;;2.20;;
65636;SDS011;52327;42.622;23.316;2023-02-28T05:55:13;3.17;;;1.73;;
65636;SDS011;52327;42.622;23.316;2023-02-28T05:57:39;3.40;;;2.65;;
65636;SDS011;52327;42.622;23.316;2023-02-28T06:00:04;4.13;;;1.80;;
65636;SDS011;52327;42.622;23.316;2023-02-28T06:02:30;2.65;;;1.95;;
65636;SDS011;52327;42.622;23.316;2023-02-28T06:04:55;7.93;;;2.53;;
65636;SDS011;52327;42.622;23.316;2023-02-28T06:07:21;6.75;;;3.42;;
65636;SDS011;52327;42.622;23.316;2023-02-28T06:09:47;5.95;;;3.10;;
65636;SDS011;52327;42.622;23.316;2023-02-28T06:12:13;4.05;;;2.50;;
65636;SDS011;52327;42.622;23.316;2023-02-28T06:14:38;4.97;;;2.92;;
65636;SDS011;52327;42.622;23.316;2023-02-28T06:17:04;6.85;;;3.58;;
65636;SDS011;52327;42.622;23.316;2023-02-28T06:19:29;8.23;;;2.95;;
65636;SDS011;52327;42.622;23.316;2023-02-28T06:21:55;7.20;;;2.83;;
65636;SDS011;52327;42.622;23.316;2023-02-28T06:24:22;3.65;;;2.63;;
65636;SDS011;52327;42.622;23.316;2023-02-28T06:26:49;7.70;;;2.80;;
65636;SDS011;52327;42.622;23.316;2023-02-28T06:29:14;9.68;;;3.75;;
65636;SDS011;52327;42.622;23.316;2023-02-28T06:31:46;9.73;;;3.53;;
65636;SDS011;52327;42.622;23.316;2023-02-28T06:34:12;2.45;;;2.10;;
65636;SDS011;52327;42.622;23.316;2023-02-28T06:36:39;7.25;;;4.05;;
65636;SDS011;52327;42.622;23.316;2023-02-28T06:39:05;4.68;;;3.08;;
65636;SDS011;52327;42.622;23.316;2023-02-28T06:41:31;6.53;;;3.72;;
65636;SDS011;52327;42.622;23.316;2023-02-28T06:43:56;8.10;;;3.38;;
65636;SDS011;52327;42.622;23.316;2023-02-28T06:46:22;8.10;;;2.58;;
65636;SDS011;52327;42.622;23.316;2023-02-28T06:48:48;4.28;;;2.08;;
65636;SDS011;52327;42.622;23.316;2023-02-28T06:51:14;8.38;;;4.13;;
65636;SDS011;52327;42.622;23.316;2023-02-28T06:53:42;5.43;;;2.78;;
65636;SDS011;52327;42.622;23.316;2023-02-28T06:56:08;8.95;;;4.50;;
65636;SDS011;52327;42.622;23.316;2023-02-28T06:58:35;4.55;;;2.55;;
65636;SDS011;52327;42.622;23.316;2023-02-28T07:01:02;9.30;;;4.20;;
65636;SDS011;52327;42.622;23.316;2023-02-28T07:03:28;6.57;;;3.53;;
65636;SDS011;52327;42.622;23.316;2023-02-28T07:05:54;8.45;;;3.28;;
65636;SDS011;52327;42.622;23.316;2023-02-28T07:08:21;6.55;;;3.05;;
65636;SDS011;52327;42.622;23.316;2023-02-28T07:10:51;5.82;;;4.20;;
65636;SDS011;52327;42.622;23.316;2023-02-28T07:13:17;9.90;;;4.78;;
65636;SDS011;52327;42.622;23.316;2023-02-28T07:15:42;5.10;;;3.50;;
65636;SDS011;52327;42.622;23.316;2023-02-28T07:18:07;3.67;;;2.55;;
65636;SDS011;52327;42.622;23.316;2023-02-28T07:20:33;6.00;;;3.55;;
65636;SDS011;52327;42.622;23.316;2023-02-28T07:22:58;7.22;;;5.00;;
65636;SDS011;52327;42.622;23.316;2023-02-28T07:25:25;5.40;;;2.75;;
65636;SDS011;52327;42.622;23.316;2023-02-28T07:27:51;4.07;;;3.22;;
65636;SDS011;52327;42.622;23.316;2023-02-28T07:30:17;10.10;;;5.22;;
65636;SDS011;52327;42.622;23.316;2023-02-28T07:32:42;14.85;;;7.50;;
65636;SDS011;52327;42.622;23.316;2023-02-28T07:35:08;30.13;;;14.30;;
65636;SDS011;52327;42.622;23.316;2023-02-28T07:37:33;20.20;;;9.45;;
65636;SDS011;52327;42.622;23.316;2023-02-28T07:40:06;11.05;;;6.07;;
65636;SDS011;52327;42.622;23.316;2023-02-28T07:42:34;11.73;;;5.95;;
65636;SDS011;52327;42.622;23.316;2023-02-28T07:45:00;8.95;;;5.53;;
65636;SDS011;52327;42.622;23.316;2023-02-28T07:47:26;11.63;;;6.68;;
65636;SDS011;52327;42.622;23.316;2023-02-28T07:49:51;12.50;;;6.18;;
65636;SDS011;52327;42.622;23.316;2023-02-28T07:52:17;8.93;;;4.38;;
65636;SDS011;52327;42.622;23.316;2023-02-28T07:54:43;18.90;;;5.53;;
65636;SDS011;52327;42.622;23.316;2023-02-28T07:57:08;18.70;;;6.82;;
65636;SDS011;52327;42.622;23.316;2023-02-28T07:59:34;9.48;;;5.22;;
65636;SDS011;52327;42.622;23.316;2023-02-28T08:01:59;9.80;;;5.72;;
65636;SDS011;52327;42.622;23.316;2023-02-28T08:04:25;7.53;;;4.40;;
65636;SDS011;52327;42.622;23.316;2023-02-28T08:06:50;10.15;;;5.55;;
65636;SDS011;52327;42.622;23.316;2023-02-28T08:09:19;9.43;;;6.22;;
65636;SDS011;52327;42.622;23.316;2023-02-28T08:11:45;10.38;;;6.20;;
65636;SDS011;52327;42.622;23.316;2023-02-28T08:14:10;11.30;;;6.15;;
65636;SDS011;52327;42.622;23.316;2023-02-28T08:16:35;13.60;;;6.43;;
65636;SDS011;52327;42.622;23.316;2023-02-28T08:19:02;9.35;;;5.43;;
65636;SDS011;52327;42.622;23.316;2023-02-28T08:21:27;10.88;;;5.22;;
65636;SDS011;52327;42.622;23.316;2023-02-28T08:23:53;14.40;;;6.15;;
65636;SDS011;52327;42.622;23.316;2023-02-28T08:26:18;22.30;;;6.18;;
65636;SDS011;52327;42.622;23.316;2023-02-28T08:28:44;12.77;;;7.22;;
65636;SDS011;52327;42.622;23.316;2023-02-28T08:31:11;12.60;;;5.00;;
65636;SDS011;52327;42.622;23.316;2023-02-28T08:33:38;12.15;;;6.00;;
65636;SDS011;52327;42.622;23.316;2023-02-28T08:36:05;11.65;;;6.65;;
65636;SDS011;52327;42.622;23.316;2023-02-28T08:38:31;7.78;;;5.13;;
65636;SDS011;52327;42.622;23.316;2023-02-28T08:40:58;10.48;;;6.45;;
65636;SDS011;52327;42.622;23.316;2023-02-28T08:43:25;8.02;;;5.45;;
65636;SDS011;52327;42.622;23.316;2023-02-28T08:45:53;13.02;;;6.10;;
65636;SDS011;52327;42.622;23.316;2023-02-28T08:48:21;9.60;;;5.22;;
65636;SDS011;52327;42.622;23.316;2023-02-28T08:50:57;10.35;;;4.80;;
65636;SDS011;52327;42.622;23.316;2023-02-28T08:53:25;12.70;;;5.70;;
65636;SDS011;52327;42.622;23.316;2023-02-28T08:55:57;11.00;;;6.30;;
65636;SDS011;52327;42.622;23.316;2023-02-28T08:58:23;9.70;;;4.90;;
65636;SDS011;52327;42.622;23.316;2023-02-28T09:00:48;18.42;;;6.03;;
65636;SDS011;52327;42.622;23.316;2023-02-28T09:03:15;6.28;;;4.13;;
65636;SDS011;52327;42.622;23.316;2023-02-28T09:05:40;9.43;;;3.83;;
65636;SDS011;52327;42.622;23.316;2023-02-28T09:08:05;9.88;;;4.38;;
65636;SDS011;52327;42.622;23.316;2023-02-28T09:10:31;9.13;;;4.82;;
65636;SDS011;52327;42.622;23.316;2023-02-28T09:12:56;8.80;;;4.35;;
65636;SDS011;52327;42.622;23.316;2023-02-28T09:15:22;9.98;;;4.50;;
65636;SDS011;52327;42.622;23.316;2023-02-28T09:17:47;10.38;;;5.85;;
65636;SDS011;52327;42.622;23.316;2023-02-28T09:20:12;10.90;;;5.18;;
65636;SDS011;52327;42.622;23.316;2023-02-28T09:22:38;9.18;;;5.45;;
65636;SDS011;52327;42.622;23.316;2023-02-28T09:25:03;9.13;;;5.18;;
65636;SDS011;52327;42.622;23.316;2023-02-28T09:27:29;12.18;;;5.40;;
65636;SDS011;52327;42.622;23.316;2023-02-28T09:29:55;7.05;;;4.95;;
65636;SDS011;52327;42.622;23.316;2023-02-28T09:32:20;8.90;;;5.10;;
65636;SDS011;52327;42.622;23.316;2023-02-28T09:34:45;11.45;;;4.45;;
65636;SDS011;52327;42.622;23.316;2023-02-28T09:37:11;6.18;;;3.55;;
65636;SDS011;52327;42.622;23.316;2023-02-28T09:39:36;12.00;;;3.97;;
65636;SDS011;52327;42.622;23.316;2023-02-28T09:42:02;10.57;;;3.25;;
65636;SDS011;52327;42.622;23.316;2023-02-28T09:44:31;4.63;;;2.60;;
65636;SDS011;52327;42.622;23.316;2023-02-28T09:47:04;6.22;;;2.08;;
65636;SDS011;52327;42.622;23.316;2023-02-28T09:49:36;8.98;;;3.88;;
65636;SDS011;52327;42.622;23.316;2023-02-28T09:52:08;4.00;;;2.70;;
65636;SDS011;52327;42.622;23.316;2023-02-28T09:54:41;6.45;;;3.13;;
65636;SDS011;52327;42.622;23.316;2023-02-28T09:57:09;3.67;;;2.20;;
65636;SDS011;52327;42.622;23.316;2023-02-28T09:59:54;13.20;;;2.13;;
65636;SDS011;52327;42.622;23.316;2023-02-28T10:02:44;7.13;;;2.92;;
65636;SDS011;52327;42.622;23.316;2023-02-28T10:05:18;6.65;;;3.83;;
65636;SDS011;52327;42.622;23.316;2023-02-28T10:08:00;4.95;;;2.13;;
65636;SDS011;52327;42.622;23.316;2023-02-28T10:10:40;5.93;;;3.00;;
65636;SDS011;52327;42.622;23.316;2023-02-28T10:13:21;7.68;;;3.20;;
65636;SDS011;52327;42.622;23.316;2023-02-28T10:16:08;4.68;;;2.72;;
65636;SDS011;52327;42.622;23.316;2023-02-28T10:18:59;9.10;;;3.60;;
65636;SDS011;52327;42.622;23.316;2023-02-28T10:21:42;9.52;;;3.38;;
65636;SDS011;52327;42.622;23.316;2023-02-28T10:27:21;3.45;;;2.15;;
65636;SDS011;52327;42.622;23.316;2023-02-28T10:29:50;4.32;;;3.15;;
65636;SDS011;52327;42.622;23.316;2023-02-28T10:32:19;5.43;;;2.00;;
65636;SDS011;52327;42.622;23.316;2023-02-28T10:37:48;2.60;;;1.65;;
65636;SDS011;52327;42.622;23.316;2023-02-28T10:42:57;3.65;;;1.80;;
65636;SDS011;52327;42.622;23.316;2023-02-28T10:45:23;4.55;;;2.05;;
65636;SDS011;52327;42.622;23.316;2023-02-28T10:47:54;3.22;;;2.05;;
65636;SDS011;52327;42.622;23.316;2023-02-28T10:53:07;3.15;;;1.83;;
65636;SDS011;52327;42.622;23.316;2023-02-28T11:01:37;5.53;;;2.80;;
65636;SDS011;52327;42.622;23.316;2023-02-28T11:04:16;5.47;;;2.45;;
65636;SDS011;52327;42.622;23.316;2023-02-28T11:06:44;7.45;;;2.80;;
65636;SDS011;52327;42.622;23.316;2023-02-28T11:09:26;6.85;;;3.03;;
65636;SDS011;52327;42.622;23.316;2023-02-28T11:11:55;3.08;;;1.80;;
65636;SDS011;52327;42.622;23.316;2023-02-28T11:14:22;7.25;;;2.78;;
65636;SDS011;52327;42.622;23.316;2023-02-28T11:19:45;10.77;;;1.92;;
65636;SDS011;52327;42.622;23.316;2023-02-28T11:22:21;4.22;;;2.72;;
65636;SDS011;52327;42.622;23.316;2023-02-28T11:24:51;4.55;;;2.95;;
65636;SDS011;52327;42.622;23.316;2023-02-28T11:29:58;3.70;;;2.03;;
65636;SDS011;52327;42.622;23.316;2023-02-28T11:32:28;5.32;;;2.15;;
65636;SDS011;52327;42.622;23.316;2023-02-28T11:37:29;6.03;;;3.25;;
65636;SDS011;52327;42.622;23.316;2023-02-28T11:39:56;9.30;;;3.20;;
65636;SDS011;52327;42.622;23.316;2023-02-28T11:42:37;3.67;;;2.47;;
65636;SDS011;52327;42.622;23.316;2023-02-28T11:48:18;5.55;;;2.13;;
65636;SDS011;52327;42.622;23.316;2023-02-28T11:51:06;6.15;;;3.50;;
65636;SDS011;52327;42.622;23.316;2023-02-28T12:04:45;5.88;;;2.97;;
65636;SDS011;52327;42.622;23.316;2023-02-28T12:07:24;5.13;;;2.53;;
65636;SDS011;52327;42.622;23.316;2023-02-28T12:10:20;10.95;;;3.17;;
65636;SDS011;52327;42.622;23.316;2023-02-28T12:13:03;4.38;;;2.60;;
65636;SDS011;52327;42.622;23.316;2023-02-28T12:26:55;4.82;;;2.13;;
65636;SDS011;52327;42.622;23.316;2023-02-28T12:29:25;11.27;;;3.85;;
65636;SDS011;52327;42.622;23.316;2023-02-28T12:34:38;6.03;;;2.03;;
65636;SDS011;52327;42.622;23.316;2023-02-28T12:37:09;12.02;;;3.67;;
65636;SDS011;52327;42.622;23.316;2023-02-28T12:39:41;7.10;;;2.30;;
65636;SDS011;52327;42.622;23.316;2023-02-28T12:42:11;4.95;;;2.72;;
65636;SDS011;52327;42.622;23.316;2023-02-28T12:45:05;7.45;;;3.60;;
65636;SDS011;52327;42.622;23.316;2023-02-28T12:47:35;7.38;;;2.90;;
65636;SDS011;52327;42.622;23.316;2023-02-28T12:50:04;8.02;;;4.22;;
65636;SDS011;52327;42.622;23.316;2023-02-28T13:09:23;5.82;;;3.35;;
65636;SDS011;52327;42.622;23.316;2023-02-28T13:11:50;7.55;;;2.95;;
65636;SDS011;52327;42.622;23.316;2023-02-28T13:19:34;6.03;;;3.17;;
65636;SDS011;52327;42.622;23.316;2023-02-28T13:22:02;5.50;;;2.70;;
65636;SDS011;52327;42.622;23.316;2023-02-28T13:29:41;4.90;;;2.65;;
65636;SDS011;52327;42.622;23.316;2023-02-28T13:47:36;6.68;;;2.50;;
65636;SDS011;52327;42.622;23.316;2023-02-28T13:58:55;7.30;;;3.00;;
65636;SDS011;52327;42.622;23.316;2023-02-28T14:07:06;4.45;;;2.42;;
65636;SDS011;52327;42.622;23.316;2023-02-28T14:09:33;3.53;;;2.17;;
65636;SDS011;52327;42.622;23.316;2023-02-28T14:17:58;6.40;;;2.67;;
65636;SDS011;52327;42.622;23.316;2023-02-28T14:20:26;4.15;;;2.60;;
65636;SDS011;52327;42.622;23.316;2023-02-28T14:23:07;5.53;;;1.95;;
65636;SDS011;52327;42.622;23.316;2023-02-28T14:25:55;10.00;;;3.83;;
65636;SDS011;52327;42.622;23.316;2023-02-28T14:31:34;5.60;;;2.88;;
65636;SDS011;52327;42.622;23.316;2023-02-28T14:37:11;3.83;;;2.30;;
65636;SDS011;52327;42.622;23.316;2023-02-28T14:39:41;4.90;;;2.00;;
65636;SDS011;52327;42.622;23.316;2023-02-28T14:42:45;9.95;;;2.55;;
65636;SDS011;52327;42.622;23.316;2023-02-28T14:45:03;4.05;;;1.80;;
65636;SDS011;52327;42.622;23.316;2023-02-28T14:47:33;5.03;;;2.45;;
65636;SDS011;52327;42.622;23.316;2023-02-28T14:50:01;3.65;;;2.25;;
65636;SDS011;52327;42.622;23.316;2023-02-28T14:52:29;5.25;;;2.47;;
65636;SDS011;52327;42.622;23.316;2023-02-28T14:54:58;6.88;;;2.15;;
65636;SDS011;52327;42.622;23.316;2023-02-28T15:00:06;3.08;;;1.50;;
65636;SDS011;52327;42.622;23.316;2023-02-28T15:02:35;5.28;;;1.98;;
65636;SDS011;52327;42.622;23.316;2023-02-28T15:05:24;2.17;;;1.85;;
65636;SDS011;52327;42.622;23.316;2023-02-28T15:08:00;3.15;;;2.10;;
65636;SDS011;52327;42.622;23.316;2023-02-28T15:10:50;4.43;;;1.95;;
65636;SDS011;52327;42.622;23.316;2023-02-28T15:13:19;5.82;;;2.60;;
65636;SDS011;52327;42.622;23.316;2023-02-28T15:18:27;7.38;;;2.20;;
65636;SDS011;52327;42.622;23.316;2023-02-28T15:20:54;6.90;;;1.92;;
65636;SDS011;52327;42.622;23.316;2023-02-28T15:23:21;4.72;;;2.00;;
65636;SDS011;52327;42.622;23.316;2023-02-28T15:25:47;3.40;;;2.10;;
65636;SDS011;52327;42.622;23.316;2023-02-28T15:28:16;2.60;;;1.60;;
65636;SDS011;52327;42.622;23.316;2023-02-28T15:30:52;6.28;;;1.63;;
65636;SDS011;52327;42.622;23.316;2023-02-28T15:33:21;3.00;;;1.67;;
65636;SDS011;52327;42.622;23.316;2023-02-28T15:35:49;5.60;;;2.25;;
65636;SDS011;52327;42.622;23.316;2023-02-28T15:38:25;3.38;;;2.05;;
65636;SDS011;52327;42.622;23.316;2023-02-28T15:40:53;3.40;;;1.88;;
65636;SDS011;52327;42.622;23.316;2023-02-28T15:43:30;5.55;;;1.98;;
65636;SDS011;52327;42.622;23.316;2023-02-28T15:45:58;3.08;;;1.38;;
65636;SDS011;52327;42.622;23.316;2023-02-28T15:51:18;1.17;;;1.00;;
65636;SDS011;52327;42.622;23.316;2023-02-28T15:54:00;4.05;;;2.08;;
65636;SDS011;52327;42.622;23.316;2023-02-28T15:56:31;3.60;;;1.90;;
65636;SDS011;52327;42.622;23.316;2023-02-28T15:59:05;5.82;;;2.70;;
65636;SDS011;52327;42.622;23.316;2023-02-28T16:01:33;7.32;;;3.47;;
65636;SDS011;52327;42.622;23.316;2023-02-28T16:04:05;5.93;;;3.78;;
65636;SDS011;52327;42.622;23.316;2023-02-28T16:09:23;3.17;;;1.63;;
65636;SDS011;52327;42.622;23.316;2023-02-28T16:11:50;8.43;;;3.63;;
65636;SDS011;52327;42.622;23.316;2023-02-28T16:14:28;4.28;;;2.33;;
65636;SDS011;52327;42.622;23.316;2023-02-28T16:17:03;3.28;;;2.00;;
65636;SDS011;52327;42.622;23.316;2023-02-28T16:19:31;9.88;;;3.42;;
65636;SDS011;52327;42.622;23.316;2023-02-28T16:21:57;6.30;;;3.25;;
65636;SDS011;52327;42.622;23.316;2023-02-28T16:24:22;8.55;;;3.47;;
65636;SDS011;52327;42.622;23.316;2023-02-28T16:26:49;4.90;;;3.17;;
65636;SDS011;52327;42.622;23.316;2023-02-28T16:29:24;3.97;;;2.33;;
65636;SDS011;52327;42.622;23.316;2023-02-28T16:31:54;12.52;;;3.30;;
65636;SDS011;52327;42.622;23.316;2023-02-28T16:34:19;3.50;;;1.92;;
65636;SDS011;52327;42.622;23.316;2023-02-28T16:36:46;3.70;;;2.15;;
65636;SDS011;52327;42.622;23.316;2023-02-28T16:39:12;8.07;;;2.25;;
65636;SDS011;52327;42.622;23.316;2023-02-28T16:41:38;5.35;;;2.45;;
65636;SDS011;52327;42.622;23.316;2023-02-28T16:44:09;15.38;;;2.83;;
65636;SDS011;52327;42.622;23.316;2023-02-28T16:46:39;4.43;;;2.40;;
65636;SDS011;52327;42.622;23.316;2023-02-28T16:49:04;2.38;;;1.83;;
65636;SDS011;52327;42.622;23.316;2023-02-28T16:51:35;4.38;;;2.33;;
65636;SDS011;52327;42.622;23.316;2023-02-28T16:54:00;4.32;;;2.22;;
65636;SDS011;52327;42.622;23.316;2023-02-28T16:56:26;5.03;;;2.55;;
65636;SDS011;52327;42.622;23.316;2023-02-28T16:58:51;4.43;;;2.22;;
65636;SDS011;52327;42.622;23.316;2023-02-28T17:01:20;2.58;;;1.70;;
65636;SDS011;52327;42.622;23.316;2023-02-28T17:03:47;2.88;;;1.58;;
65636;SDS011;52327;42.622;23.316;2023-02-28T17:06:21;5.97;;;2.70;;
65636;SDS011;52327;42.622;23.316;2023-02-28T17:08:51;3.17;;;1.83;;
65636;SDS011;52327;42.622;23.316;2023-02-28T17:11:17;2.17;;;1.67;;
65636;SDS011;52327;42.622;23.316;2023-02-28T17:13:43;4.30;;;2.13;;
65636;SDS011;52327;42.622;23.316;2023-02-28T17:16:29;2.30;;;1.30;;
65636;SDS011;52327;42.622;23.316;2023-02-28T17:19:00;2.15;;;1.08;;
65636;SDS011;52327;42.622;23.316;2023-02-28T17:21:29;4.20;;;2.67;;
65636;SDS011;52327;42.622;23.316;2023-02-28T17:23:56;4.20;;;1.75;;
65636;SDS011;52327;42.622;23.316;2023-02-28T17:26:22;8.77;;;2.00;;
65636;SDS011;52327;42.622;23.316;2023-02-28T17:28:52;2.95;;;1.55;;
65636;SDS011;52327;42.622;23.316;2023-02-28T17:31:20;3.55;;;1.67;;
65636;SDS011;52327;42.622;23.316;2023-02-28T17:33:46;2.92;;;2.08;;
65636;SDS011;52327;42.622;23.316;2023-02-28T17:36:16;2.72;;;1.77;;
65636;SDS011;52327;42.622;23.316;2023-02-28T17:38:46;2.50;;;1.98;;